createdAt,value
2023-03-22T00:00:55.812Z,8.80
2023-03-22T00:03:26.673Z,8.80
2023-03-22T00:06:01.849Z,8.80
2023-03-22T00:08:31.456Z,8.80
2023-03-22T00:11:01.843Z,8.80
2023-03-22T00:13:33.036Z,8.70
2023-03-22T00:16:06.079Z,8.70
2023-03-22T00:18:38.790Z,8.70
2023-03-22T00:21:17.429Z,8.70
2023-03-22T00:23:50.299Z,8.70
2023-03-22T00:26:20.623Z,8.70
2023-03-22T00:28:50.640Z,8.70
2023-03-22T00:31:20.710Z,8.70
2023-03-22T00:33:50.676Z,8.70
2023-03-22T00:36:22.540Z,8.60
2023-03-22T00:38:54.822Z,8.60
2023-03-22T00:41:25.690Z,8.60
2023-03-22T00:43:58.679Z,8.60
2023-03-22T00:46:29.090Z,8.60
2023-03-22T00:48:59.275Z,8.60
2023-03-22T00:51:31.205Z,8.60
2023-03-22T00:54:00.959Z,8.60
2023-03-22T00:56:31.099Z,8.60
2023-03-22T00:59:00.898Z,8.50
2023-03-22T01:01:30.457Z,8.50
2023-03-22T01:04:01.222Z,8.50
2023-03-22T01:06:36.295Z,8.50
2023-03-22T01:09:06.589Z,8.50
2023-03-22T01:11:36.678Z,8.50
2023-03-22T01:14:14.212Z,8.50
2023-03-22T01:16:44.144Z,8.50
2023-03-22T01:19:15.684Z,8.50
2023-03-22T01:21:47.207Z,8.50
2023-03-22T01:24:17.326Z,8.50
2023-03-22T01:26:49.144Z,8.50
2023-03-22T01:29:21.455Z,8.60
2023-03-22T01:31:51.752Z,8.60
2023-03-22T01:34:23.331Z,8.60
2023-03-22T01:36:57.141Z,8.60
2023-03-22T01:39:28.597Z,8.60
2023-03-22T01:41:59.391Z,8.60
2023-03-22T01:44:32.541Z,8.60
2023-03-22T01:47:02.313Z,8.70
2023-03-22T01:49:35.793Z,8.70
2023-03-22T01:52:11.181Z,8.70
2023-03-22T01:54:45.598Z,8.70
2023-03-22T01:57:19.258Z,8.70
2023-03-22T01:59:54.145Z,8.70
2023-03-22T02:02:25.532Z,8.70
2023-03-22T02:04:58.849Z,8.80
2023-03-22T02:07:32.379Z,8.80
2023-03-22T02:10:07.086Z,8.80
2023-03-22T02:12:46.365Z,8.80
2023-03-22T02:15:23.919Z,8.80
2023-03-22T02:18:07.115Z,8.80
2023-03-22T02:21:08.292Z,8.80
2023-03-22T02:24:19.856Z,8.80
2023-03-22T02:27:23.629Z,8.80
2023-03-22T02:30:05.914Z,8.80
2023-03-22T02:33:05.918Z,8.80
2023-03-22T02:36:06.959Z,8.80
2023-03-22T02:39:10.535Z,8.90
2023-03-22T02:41:50.620Z,8.80
2023-03-22T02:44:27.994Z,8.90
2023-03-22T02:47:05.006Z,8.80
2023-03-22T02:49:43.792Z,8.80
2023-03-22T02:52:19.358Z,8.80
2023-03-22T02:55:00.046Z,8.80
2023-03-22T02:57:35.864Z,8.80
2023-03-22T03:00:13.591Z,8.90
2023-03-22T03:02:51.821Z,8.90
2023-03-22T03:05:23.726Z,8.90
2023-03-22T03:07:58.156Z,8.90
2023-03-22T03:10:34.220Z,8.80
2023-03-22T03:13:04.210Z,8.80
2023-03-22T03:15:34.641Z,8.80
2023-03-22T03:18:23.325Z,8.80
2023-03-22T03:21:03.991Z,8.80
2023-03-22T03:23:42.306Z,8.80
2023-03-22T03:26:23.274Z,8.80
2023-03-22T03:28:57.884Z,8.80
2023-03-22T03:31:37.501Z,8.80
2023-03-22T03:34:15.439Z,8.80
2023-03-22T03:36:51.856Z,8.80
2023-03-22T03:39:22.555Z,8.80
2023-03-22T03:41:58.088Z,8.80
2023-03-22T03:44:28.714Z,8.80
2023-03-22T03:46:59.968Z,8.80
2023-03-22T03:49:30.803Z,8.70
2023-03-22T03:52:03.200Z,8.70
2023-03-22T03:54:33.291Z,8.70
2023-03-22T03:57:04.433Z,8.70
2023-03-22T03:59:41.857Z,8.70
2023-03-22T04:02:12.783Z,8.70
2023-03-22T04:04:42.856Z,8.70
2023-03-22T04:07:13.130Z,8.70
2023-03-22T04:09:48.958Z,8.70
2023-03-22T04:12:21.750Z,8.70
2023-03-22T04:14:51.659Z,8.70
2023-03-22T04:17:21.493Z,8.70
2023-03-22T04:19:57.017Z,8.70
2023-03-22T04:22:27.212Z,8.70
2023-03-22T04:24:57.060Z,8.70
2023-03-22T04:27:31.478Z,8.70
2023-03-22T04:30:01.416Z,8.80
2023-03-22T04:32:31.274Z,8.70
2023-03-22T04:35:01.282Z,8.70
2023-03-22T04:37:32.176Z,8.70
2023-03-22T04:40:08.004Z,8.70
2023-03-22T04:42:39.839Z,8.70
2023-03-22T04:45:11.422Z,8.70
2023-03-22T04:47:42.078Z,8.70
2023-03-22T04:50:13.610Z,8.70
2023-03-22T04:52:43.717Z,8.70
2023-03-22T04:55:13.735Z,8.70
2023-03-22T04:57:45.083Z,8.70
2023-03-22T05:00:16.093Z,8.70
2023-03-22T05:02:50.549Z,8.70
2023-03-22T05:05:20.564Z,8.70
2023-03-22T05:07:50.551Z,8.70
2023-03-22T05:10:23.721Z,8.70
2023-03-22T05:12:55.458Z,8.70
2023-03-22T05:15:28.285Z,8.70
2023-03-22T05:17:57.833Z,8.70
2023-03-22T05:20:28.253Z,8.70
2023-03-22T05:22:58.154Z,8.70
2023-03-22T05:25:28.476Z,8.70
2023-03-22T05:28:02.611Z,8.70
2023-03-22T05:30:34.246Z,8.70
2023-03-22T05:33:07.956Z,8.70
2023-03-22T05:35:39.411Z,8.70
2023-03-22T05:38:11.084Z,8.70
2023-03-22T05:40:41.421Z,8.80
2023-03-22T05:43:13.716Z,8.80
2023-03-22T05:45:43.784Z,8.80
2023-03-22T05:48:13.817Z,8.80
2023-03-22T05:50:52.631Z,8.80
2023-03-22T05:53:22.763Z,8.80
2023-03-22T05:55:53.698Z,8.80
2023-03-22T05:58:25.664Z,8.80
2023-03-22T06:00:56.252Z,8.90
2023-03-22T06:03:27.634Z,8.90
2023-03-22T06:05:59.969Z,8.90
2023-03-22T06:08:32.287Z,8.90
2023-03-22T06:11:04.324Z,8.90
2023-03-22T06:13:36.188Z,8.90
2023-03-22T06:16:07.401Z,8.90
2023-03-22T06:18:37.970Z,8.90
2023-03-22T06:21:16.168Z,8.90
2023-03-22T06:23:45.845Z,8.90
2023-03-22T06:26:18.557Z,9.00
2023-03-22T06:28:54.721Z,9.00
2023-03-22T06:31:24.628Z,9.00
2023-03-22T06:33:54.850Z,9.10
2023-03-22T06:36:27.627Z,9.10
2023-03-22T06:38:57.058Z,9.10
2023-03-22T06:41:25.914Z,9.10
2023-03-22T06:43:57.284Z,9.20
2023-03-22T06:46:28.364Z,9.20
2023-03-22T06:48:58.322Z,9.20
2023-03-22T06:51:28.130Z,9.20
2023-03-22T06:54:00.807Z,9.30
2023-03-22T06:56:35.174Z,9.30
2023-03-22T06:59:06.781Z,9.30
2023-03-22T07:01:36.542Z,9.30
2023-03-22T07:04:08.583Z,9.30
2023-03-22T07:06:39.910Z,9.30
2023-03-22T07:09:10.600Z,9.30
2023-03-22T07:11:40.520Z,9.30
2023-03-22T07:14:11.919Z,9.30
2023-03-22T07:16:42.246Z,9.40
2023-03-22T07:19:15.061Z,9.40
2023-03-22T07:21:44.861Z,9.40
2023-03-22T07:24:14.844Z,9.40
2023-03-22T07:26:44.398Z,9.40
2023-03-22T07:29:15.440Z,9.40
2023-03-22T07:31:46.527Z,9.40
2023-03-22T07:34:17.014Z,9.40
2023-03-22T07:36:46.973Z,9.40
2023-03-22T07:39:16.794Z,9.40
2023-03-22T07:41:46.089Z,9.50
2023-03-22T07:44:18.730Z,9.50
2023-03-22T07:46:54.481Z,9.50
2023-03-22T07:49:24.148Z,9.50
2023-03-22T07:51:55.898Z,9.60
2023-03-22T07:54:33.939Z,9.60
2023-03-22T07:57:07.123Z,9.60
2023-03-22T07:59:41.258Z,9.70
2023-03-22T08:02:12.877Z,9.70
2023-03-22T08:04:43.356Z,9.70
2023-03-22T08:07:12.788Z,9.70
2023-03-22T08:09:43.433Z,9.70
2023-03-22T08:12:13.085Z,9.80
2023-03-22T08:14:46.613Z,9.80
2023-03-22T08:17:16.744Z,9.80
2023-03-22T08:19:47.277Z,9.80
2023-03-22T08:22:18.063Z,9.90
2023-03-22T08:24:50.082Z,9.90
2023-03-22T08:27:20.668Z,10.00
2023-03-22T08:29:51.829Z,10.10
2023-03-22T08:32:24.505Z,10.20
2023-03-22T08:34:54.851Z,10.30
2023-03-22T08:37:25.497Z,10.40
2023-03-22T08:40:03.367Z,10.50
2023-03-22T08:42:33.808Z,10.60
2023-03-22T08:45:05.879Z,10.70
2023-03-22T08:47:35.916Z,10.70
2023-03-22T08:50:06.931Z,10.80
2023-03-22T08:52:36.537Z,10.90
2023-03-22T08:55:06.458Z,11.00
2023-03-22T08:57:38.845Z,11.00
2023-03-22T09:00:12.507Z,11.10
2023-03-22T09:02:42.451Z,11.10
2023-03-22T09:05:14.130Z,11.20
2023-03-22T09:07:44.421Z,11.20
2023-03-22T09:10:17.142Z,11.20
2023-03-22T09:12:50.153Z,11.30
2023-03-22T09:15:21.844Z,11.40
2023-03-22T09:17:52.244Z,11.40
2023-03-22T09:20:25.858Z,11.50
2023-03-22T09:22:55.820Z,11.50
2023-03-22T09:25:29.162Z,11.50
2023-03-22T09:27:59.318Z,11.60
2023-03-22T09:30:31.871Z,11.60
2023-03-22T09:33:04.956Z,11.70
2023-03-22T09:35:35.493Z,11.70
2023-03-22T09:38:07.792Z,11.70
2023-03-22T09:40:40.147Z,11.80
2023-03-22T09:43:14.554Z,11.80
2023-03-22T09:45:49.011Z,11.90
2023-03-22T09:48:26.202Z,11.90
2023-03-22T09:50:57.391Z,12.00
2023-03-22T09:53:32.856Z,12.10
2023-03-22T09:56:09.726Z,12.00
2023-03-22T09:58:45.526Z,12.10
2023-03-22T10:01:25.410Z,12.10
2023-03-22T10:04:18.229Z,12.10
2023-03-22T10:07:03.659Z,12.10
2023-03-22T10:09:39.399Z,12.10
2023-03-22T10:12:18.636Z,12.20
2023-03-22T10:14:55.011Z,12.20
2023-03-22T10:17:29.336Z,12.30
2023-03-22T10:20:06.717Z,12.30
2023-03-22T10:22:42.292Z,12.30
2023-03-22T10:25:21.260Z,12.30
2023-03-22T10:27:52.362Z,12.30
2023-03-22T10:30:27.378Z,12.30
2023-03-22T10:33:03.344Z,12.40
2023-03-22T10:35:40.470Z,12.40
2023-03-22T10:38:20.615Z,12.40
2023-03-22T10:40:53.542Z,12.40
2023-03-22T10:43:27.962Z,12.40
2023-03-22T10:46:08.528Z,12.40
2023-03-22T10:48:44.104Z,12.50
2023-03-22T10:51:25.810Z,12.50
2023-03-22T10:53:58.714Z,12.50
2023-03-22T10:56:28.874Z,12.40
2023-03-22T10:58:59.095Z,12.50
2023-03-22T11:01:31.703Z,12.50
2023-03-22T11:04:11.218Z,12.40
2023-03-22T11:06:44.689Z,12.40
2023-03-22T11:09:15.673Z,12.50
2023-03-22T11:11:53.727Z,12.40
2023-03-22T11:14:29.102Z,12.50
2023-03-22T11:17:03.024Z,12.40
2023-03-22T11:19:37.653Z,12.40
2023-03-22T11:22:10.209Z,12.40
2023-03-22T11:24:40.244Z,12.30
2023-03-22T11:27:20.686Z,12.30
2023-03-22T11:29:54.276Z,12.30
2023-03-22T11:32:30.643Z,12.30
2023-03-22T11:35:13.228Z,12.30
2023-03-22T11:37:48.419Z,12.40
2023-03-22T11:40:23.450Z,12.40
2023-03-22T11:42:57.057Z,12.40
2023-03-22T11:45:31.313Z,12.50
2023-03-22T11:48:05.151Z,12.50
2023-03-22T11:50:39.821Z,12.50
2023-03-22T11:53:15.557Z,12.50
2023-03-22T11:55:46.579Z,12.50
2023-03-22T11:58:31.138Z,12.50
2023-03-22T12:01:04.750Z,12.50
2023-03-22T12:03:41.456Z,12.50
2023-03-22T12:06:23.333Z,12.50
2023-03-22T12:08:59.089Z,12.50
2023-03-22T12:11:34.092Z,12.50
2023-03-22T12:14:10.210Z,12.50
2023-03-22T12:16:49.039Z,12.50
2023-03-22T12:19:31.853Z,12.50
2023-03-22T12:22:14.046Z,12.50
2023-03-22T12:24:51.560Z,12.50
2023-03-22T12:27:25.431Z,12.50
2023-03-22T12:30:00.740Z,12.50
2023-03-22T12:32:32.584Z,12.50
2023-03-22T12:35:16.662Z,12.50
2023-03-22T12:37:56.009Z,12.50
2023-03-22T12:40:29.170Z,12.40
2023-03-22T12:43:09.060Z,12.30
2023-03-22T12:45:43.285Z,12.30
2023-03-22T12:48:21.906Z,12.20
2023-03-22T12:50:55.768Z,12.10
2023-03-22T12:53:31.785Z,12.00
2023-03-22T12:56:03.168Z,12.00
2023-03-22T12:58:33.051Z,11.90
2023-03-22T13:01:14.928Z,11.80
2023-03-22T13:03:52.652Z,11.80
2023-03-22T13:06:57.116Z,11.80
2023-03-22T13:09:43.739Z,11.70
2023-03-22T13:12:38.603Z,11.70
2023-03-22T13:15:41.329Z,11.60
2023-03-22T13:18:33.654Z,11.50
2023-03-22T13:21:14.306Z,11.50
2023-03-22T13:24:01.515Z,11.50
2023-03-22T13:26:39.312Z,11.50
2023-03-22T13:29:16.601Z,11.40
2023-03-22T13:31:58.746Z,11.40
2023-03-22T13:34:42.684Z,11.40
2023-03-22T13:37:25.405Z,11.50
2023-03-22T13:39:54.868Z,11.50
2023-03-22T13:42:36.932Z,11.50
2023-03-22T13:45:14.136Z,11.50
2023-03-22T13:47:47.700Z,11.50
2023-03-22T13:50:20.366Z,11.50
2023-03-22T13:53:01.095Z,11.50
2023-03-22T13:55:59.089Z,11.50
2023-03-22T13:58:52.901Z,11.50
2023-03-22T14:01:35.554Z,11.50
2023-03-22T14:04:11.098Z,11.50
2023-03-22T14:06:53.457Z,11.50
2023-03-22T14:09:29.891Z,11.50
2023-03-22T14:12:07.446Z,11.50
2023-03-22T14:14:47.148Z,11.50
2023-03-22T14:17:28.771Z,11.40
2023-03-22T14:19:58.873Z,11.50
